createdAt,value
2019-03-18T00:02:05.567Z,4.90
2019-03-18T00:04:35.892Z,4.90
2019-03-18T00:07:06.693Z,4.80
2019-03-18T00:09:37.387Z,4.80
2019-03-18T00:12:08.037Z,4.70
2019-03-18T00:15:01.394Z,4.70
2019-03-18T00:17:30.795Z,4.60
2019-03-18T00:20:01.145Z,4.60
2019-03-18T00:22:31.577Z,4.70
2019-03-18T00:25:02.093Z,4.70
2019-03-18T00:27:32.731Z,4.60
2019-03-18T00:30:16.418Z,4.60
2019-03-18T00:32:47.101Z,4.60
2019-03-18T00:35:17.729Z,4.60
2019-03-18T00:37:48.085Z,4.50
2019-03-18T00:40:20.468Z,4.50
2019-03-18T00:42:51.062Z,4.50
2019-03-18T00:45:21.789Z,4.50
2019-03-18T00:47:52.395Z,4.50
2019-03-18T00:50:22.720Z,4.40
2019-03-18T00:52:53.139Z,4.40
2019-03-18T00:55:24.519Z,4.40
2019-03-18T00:57:55.219Z,4.30
2019-03-18T01:00:25.593Z,4.30
2019-03-18T01:02:56.383Z,4.30
2019-03-18T01:05:26.801Z,4.30
2019-03-18T01:07:57.182Z,4.20
2019-03-18T01:10:27.836Z,4.20
2019-03-18T01:12:58.433Z,4.20
2019-03-18T01:15:29.150Z,4.20
2019-03-18T01:17:59.494Z,4.20
2019-03-18T01:20:30.379Z,4.10
2019-03-18T01:23:00.774Z,4.10
2019-03-18T01:25:31.136Z,4.10
2019-03-18T01:28:01.866Z,4.10
2019-03-18T01:30:32.224Z,4.10
2019-03-18T01:33:02.690Z,4.10
2019-03-18T01:35:33.579Z,4.10
2019-03-18T01:38:03.979Z,4.10
2019-03-18T01:40:34.789Z,4.10
2019-03-18T01:43:05.260Z,4.20
2019-03-18T01:45:41.035Z,4.10
2019-03-18T01:48:08.355Z,4.20
2019-03-18T01:50:38.675Z,4.20
2019-03-18T01:53:13.248Z,4.20
2019-03-18T01:55:43.593Z,4.20
2019-03-18T01:58:14.206Z,4.20
2019-03-18T02:00:44.838Z,4.20
2019-03-18T02:03:15.866Z,4.20
2019-03-18T02:05:46.878Z,4.20
2019-03-18T02:08:17.322Z,4.30
2019-03-18T02:10:47.965Z,4.20
2019-03-18T02:13:18.723Z,4.20
2019-03-18T02:15:53.523Z,4.20
2019-03-18T02:18:21.932Z,4.10
2019-03-18T02:20:52.619Z,4.10
2019-03-18T02:23:23.408Z,4.10
2019-03-18T02:25:53.720Z,4.10
2019-03-18T02:28:24.150Z,4.10
2019-03-18T02:30:55.681Z,4.00
2019-03-18T02:33:26.391Z,4.00
2019-03-18T02:35:56.714Z,4.00
2019-03-18T02:38:27.446Z,4.00
2019-03-18T02:40:57.793Z,4.00
2019-03-18T02:43:28.109Z,4.10
2019-03-18T02:46:09.853Z,4.10
2019-03-18T02:48:30.584Z,4.10
2019-03-18T02:51:01.098Z,4.10
2019-03-18T02:53:31.807Z,4.10
2019-03-18T02:56:02.129Z,4.00
2019-03-18T02:58:32.481Z,4.00
2019-03-18T03:01:03.199Z,4.00
2019-03-18T03:03:36.795Z,3.90
2019-03-18T03:06:06.317Z,3.90
2019-03-18T03:08:36.692Z,3.90
2019-03-18T03:11:07.090Z,3.90
2019-03-18T03:13:38.030Z,3.90
2019-03-18T03:16:08.393Z,3.90
2019-03-18T03:18:38.738Z,4.00
2019-03-18T03:21:09.058Z,4.00
2019-03-18T03:23:40.115Z,4.00
2019-03-18T03:26:10.735Z,4.00
2019-03-18T03:28:41.055Z,4.00
2019-03-18T03:31:11.785Z,4.00
2019-03-18T03:33:42.701Z,3.90
2019-03-18T03:36:13.017Z,3.90
2019-03-18T03:38:43.769Z,3.90
2019-03-18T03:41:17.630Z,3.90
2019-03-18T03:43:46.503Z,3.90
2019-03-18T03:46:16.884Z,3.90
2019-03-18T03:48:47.237Z,4.00
2019-03-18T03:51:18.169Z,3.90
2019-03-18T03:54:08.306Z,3.90
2019-03-18T03:56:39.090Z,3.90
2019-03-18T03:59:09.823Z,3.90
2019-03-18T04:01:40.169Z,3.90
2019-03-18T04:04:10.781Z,3.90
2019-03-18T04:06:41.490Z,3.90
2019-03-18T04:09:11.958Z,4.00
2019-03-18T04:11:43.001Z,3.90
2019-03-18T04:14:13.701Z,3.90
2019-03-18T04:17:00.573Z,3.90
2019-03-18T04:19:16.723Z,3.90
2019-03-18T04:21:50.366Z,3.90
2019-03-18T04:24:19.183Z,3.90
2019-03-18T04:26:50.190Z,3.80
2019-03-18T04:29:22.182Z,3.80
2019-03-18T04:31:52.858Z,3.80
2019-03-18T04:34:23.479Z,3.80
2019-03-18T04:36:53.834Z,3.90
2019-03-18T04:39:24.757Z,3.90
2019-03-18T04:41:55.103Z,3.90
2019-03-18T04:44:25.699Z,3.90
2019-03-18T04:46:56.329Z,3.80
2019-03-18T04:49:26.680Z,3.80
2019-03-18T04:51:57.410Z,3.80
2019-03-18T04:54:28.063Z,3.80
2019-03-18T04:56:58.652Z,3.80
2019-03-18T04:59:41.761Z,3.90
2019-03-18T05:02:12.249Z,3.90
2019-03-18T05:04:42.942Z,4.00
2019-03-18T05:07:13.680Z,4.10
2019-03-18T05:09:44.005Z,4.20
2019-03-18T05:12:15.202Z,4.20
2019-03-18T05:14:45.641Z,4.20
2019-03-18T05:17:26.167Z,4.30
2019-03-18T05:19:47.971Z,4.30
2019-03-18T05:22:18.319Z,4.40
2019-03-18T05:24:48.975Z,4.50
2019-03-18T05:27:19.937Z,4.50
2019-03-18T05:29:51.032Z,4.50
2019-03-18T05:32:22.099Z,4.50
2019-03-18T05:34:52.858Z,4.60
2019-03-18T05:37:23.691Z,4.60
2019-03-18T05:39:56.142Z,4.60
2019-03-18T05:42:26.883Z,4.60
2019-03-18T05:44:57.321Z,4.70
2019-03-18T05:47:38.791Z,4.70
2019-03-18T05:50:00.119Z,4.70
2019-03-18T05:52:30.851Z,4.70
2019-03-18T05:55:01.219Z,4.70
2019-03-18T05:57:31.558Z,4.70
2019-03-18T06:00:02.371Z,4.70
2019-03-18T06:02:32.714Z,4.70
2019-03-18T06:05:03.130Z,4.70
2019-03-18T06:07:33.498Z,4.80
2019-03-18T06:10:06.175Z,4.80
2019-03-18T06:12:36.850Z,4.80
2019-03-18T06:15:11.895Z,4.80
2019-03-18T06:17:52.282Z,4.80
2019-03-18T06:20:15.323Z,4.80
2019-03-18T06:22:46.321Z,4.80
2019-03-18T06:25:16.650Z,4.80
2019-03-18T06:27:47.001Z,4.90
2019-03-18T06:30:18.549Z,4.90
2019-03-18T06:32:48.899Z,5.00
2019-03-18T06:35:20.617Z,5.00
2019-03-18T06:37:51.135Z,5.10
2019-03-18T06:40:21.794Z,5.10
2019-03-18T06:42:52.634Z,5.10
2019-03-18T06:45:23.277Z,5.20
2019-03-18T06:48:04.336Z,5.20
2019-03-18T06:50:26.310Z,5.20
2019-03-18T06:52:56.672Z,5.20
2019-03-18T06:55:27.452Z,5.30
2019-03-18T06:57:59.702Z,5.30
2019-03-18T07:00:30.481Z,5.30
2019-03-18T07:03:00.829Z,5.30
2019-03-18T07:05:31.982Z,5.40
2019-03-18T07:08:02.391Z,5.40
2019-03-18T07:10:33.128Z,5.50
2019-03-18T07:13:03.833Z,5.50
2019-03-18T07:15:34.545Z,5.50
2019-03-18T07:18:17.251Z,5.50
2019-03-18T07:20:37.363Z,5.60
2019-03-18T07:23:08.114Z,5.70
2019-03-18T07:25:38.767Z,5.80
2019-03-18T07:28:09.486Z,5.90
2019-03-18T07:30:39.980Z,6.10
2019-03-18T07:33:10.337Z,6.20
2019-03-18T07:35:41.412Z,6.20
2019-03-18T07:38:12.426Z,6.30
2019-03-18T07:40:49.339Z,6.40
2019-03-18T07:43:15.156Z,6.30
2019-03-18T07:45:46.198Z,6.30
2019-03-18T07:48:16.898Z,6.30
2019-03-18T07:50:47.567Z,6.30
2019-03-18T07:53:18.416Z,6.30
2019-03-18T07:55:49.117Z,6.40
2019-03-18T07:58:22.285Z,6.50
2019-03-18T08:00:52.413Z,6.50
2019-03-18T08:03:23.288Z,6.50
2019-03-18T08:05:54.005Z,6.50
2019-03-18T08:08:24.476Z,6.60
2019-03-18T08:10:55.242Z,6.70
2019-03-18T08:13:26.325Z,6.90
2019-03-18T08:15:57.062Z,6.80
2019-03-18T08:18:27.406Z,7.00
2019-03-18T08:20:57.741Z,7.00
2019-03-18T08:23:28.083Z,6.90
2019-03-18T08:25:58.575Z,6.80
2019-03-18T08:28:29.291Z,6.80
2019-03-18T08:31:00.125Z,6.80
2019-03-18T08:33:30.825Z,6.90
2019-03-18T08:36:01.457Z,6.90
2019-03-18T08:38:31.799Z,7.00
2019-03-18T08:41:02.470Z,7.00
2019-03-18T08:43:32.821Z,7.00
2019-03-18T08:46:03.635Z,7.10
2019-03-18T08:48:34.354Z,7.10
2019-03-18T08:51:04.703Z,7.10
2019-03-18T08:53:35.051Z,7.20
2019-03-18T08:56:05.402Z,7.20
2019-03-18T08:58:36.194Z,7.20
2019-03-18T09:01:06.921Z,7.30
2019-03-18T09:03:37.248Z,7.30
2019-03-18T09:06:07.861Z,7.40
2019-03-18T09:08:39.127Z,7.40
2019-03-18T09:11:09.453Z,7.40
2019-03-18T09:13:39.808Z,7.40
2019-03-18T09:16:10.914Z,7.50
2019-03-18T09:18:41.559Z,7.50
2019-03-18T09:21:12.191Z,7.50
2019-03-18T09:23:42.836Z,7.50
2019-03-18T09:26:13.199Z,7.40
2019-03-18T09:28:44.377Z,7.40
2019-03-18T09:31:14.903Z,7.30
2019-03-18T09:33:45.218Z,7.40
2019-03-18T09:36:15.916Z,7.50
2019-03-18T09:38:46.290Z,7.80
2019-03-18T09:41:17.026Z,7.90
2019-03-18T09:43:47.546Z,8.10
2019-03-18T09:46:18.340Z,8.20
2019-03-18T09:48:48.692Z,8.30
2019-03-18T09:51:19.401Z,8.60
2019-03-18T09:53:50.060Z,8.80
2019-03-18T09:56:21.063Z,9.10
2019-03-18T09:58:51.710Z,9.20
2019-03-18T10:01:22.091Z,9.30
2019-03-18T10:03:53.185Z,9.20
2019-03-18T10:06:24.000Z,9.00
2019-03-18T10:08:54.781Z,8.80
2019-03-18T10:11:25.435Z,8.70
2019-03-18T10:13:56.333Z,8.70
2019-03-18T10:16:27.022Z,8.50
2019-03-18T10:18:57.701Z,8.20
2019-03-18T10:21:28.029Z,8.30
2019-03-18T10:23:58.420Z,8.30
2019-03-18T10:26:29.498Z,8.40
2019-03-18T10:29:00.207Z,8.50
2019-03-18T10:31:30.866Z,8.60
2019-03-18T10:34:20.928Z,8.80
2019-03-18T10:36:51.571Z,8.90
2019-03-18T10:39:22.637Z,8.90
2019-03-18T10:41:53.153Z,9.00
2019-03-18T10:44:23.949Z,8.90
2019-03-18T10:46:54.278Z,9.00
2019-03-18T10:49:24.634Z,9.10
2019-03-18T10:51:55.078Z,9.20
2019-03-18T10:54:30.718Z,9.20
2019-03-18T10:56:57.633Z,9.30
2019-03-18T10:59:28.394Z,9.40
2019-03-18T11:01:59.282Z,9.60
2019-03-18T11:04:30.098Z,9.70
2019-03-18T11:07:00.865Z,9.70
2019-03-18T11:09:31.868Z,9.80
2019-03-18T11:12:02.376Z,9.90
2019-03-18T11:14:52.943Z,9.90
2019-03-18T11:17:23.765Z,10.00
2019-03-18T11:19:58.632Z,10.10
2019-03-18T11:22:26.459Z,10.20
2019-03-18T11:24:57.298Z,10.20
2019-03-18T11:27:27.661Z,10.50
2019-03-18T11:29:58.018Z,10.50
2019-03-18T11:32:29.091Z,10.50
2019-03-18T11:34:59.651Z,10.80
2019-03-18T11:37:30.013Z,10.70
2019-03-18T11:40:01.813Z,10.60
2019-03-18T11:42:32.721Z,10.40
2019-03-18T11:45:04.113Z,10.50
2019-03-18T11:47:34.737Z,10.50
2019-03-18T11:50:14.950Z,10.50
2019-03-18T11:52:45.415Z,10.40
2019-03-18T11:55:26.631Z,10.30
2019-03-18T11:57:57.406Z,10.20
2019-03-18T12:00:28.164Z,10.10
2019-03-18T12:02:59.017Z,10.10
2019-03-18T12:05:30.159Z,10.10
2019-03-18T12:08:00.795Z,10.10
2019-03-18T12:10:31.250Z,10.10
2019-03-18T12:13:02.489Z,10.10
2019-03-18T12:15:36.245Z,10.10
2019-03-18T12:18:05.996Z,10.10
2019-03-18T12:20:37.158Z,10.20
2019-03-18T12:23:07.520Z,10.30
2019-03-18T12:25:37.899Z,10.50
2019-03-18T12:28:08.630Z,10.70
2019-03-18T12:30:38.980Z,10.90
2019-03-18T12:33:10.103Z,10.90
2019-03-18T12:35:40.829Z,10.80
2019-03-18T12:38:11.461Z,10.50
2019-03-18T12:40:42.106Z,10.30
2019-03-18T12:43:12.809Z,10.20
2019-03-18T12:45:43.156Z,10.20
2019-03-18T12:48:13.880Z,10.10
2019-03-18T12:50:57.277Z,10.10
2019-03-18T12:53:27.639Z,10.30
2019-03-18T12:55:58.281Z,10.50
2019-03-18T12:58:28.934Z,10.90
2019-03-18T13:01:11.816Z,11.10
2019-03-18T13:03:32.257Z,11.30
2019-03-18T13:06:03.436Z,11.50
2019-03-18T13:08:34.203Z,11.70
2019-03-18T13:11:04.539Z,11.60
2019-03-18T13:13:35.237Z,11.10
2019-03-18T13:16:05.935Z,10.80
2019-03-18T13:18:36.563Z,10.70
2019-03-18T13:21:08.390Z,10.30
2019-03-18T13:23:39.109Z,9.90
2019-03-18T13:26:09.449Z,9.80
2019-03-18T13:28:39.812Z,9.60
2019-03-18T13:31:10.553Z,9.90
2019-03-18T13:33:41.798Z,9.90
2019-03-18T13:36:12.611Z,9.90
2019-03-18T13:38:43.315Z,10.10
2019-03-18T13:41:13.662Z,10.20
2019-03-18T13:43:44.019Z,10.20
2019-03-18T13:46:14.663Z,10.20
2019-03-18T13:48:45.713Z,10.20
2019-03-18T13:51:20.727Z,10.20
2019-03-18T13:53:48.515Z,10.10
2019-03-18T13:56:20.324Z,10.10
2019-03-18T13:58:51.025Z,10.20
2019-03-18T14:01:21.402Z,10.20
2019-03-18T14:03:52.133Z,10.20
2019-03-18T14:06:23.213Z,10.20
2019-03-18T14:08:54.255Z,10.00
2019-03-18T14:11:24.966Z,9.80
2019-03-18T14:13:55.650Z,9.90
2019-03-18T14:16:26.326Z,10.00
2019-03-18T14:18:57.307Z,10.00
2019-03-18T14:21:33.311Z,9.90
2019-03-18T14:24:00.728Z,9.80
2019-03-18T14:26:31.446Z,9.70
2019-03-18T14:29:01.807Z,9.70
2019-03-18T14:31:32.547Z,9.70
2019-03-18T14:34:02.857Z,9.60
2019-03-18T14:36:33.784Z,9.70
2019-03-18T14:39:06.071Z,9.60
2019-03-18T14:41:36.443Z,9.50
2019-03-18T14:44:07.479Z,9.50
2019-03-18T14:46:37.916Z,9.50
2019-03-18T14:49:08.277Z,9.50
2019-03-18T14:51:45.767Z,9.50
2019-03-18T14:54:11.539Z,9.60
2019-03-18T14:56:42.550Z,9.60
2019-03-18T14:59:13.195Z,9.60
2019-03-18T15:01:44.102Z,9.50
2019-03-18T15:04:14.459Z,9.50
2019-03-18T15:06:45.361Z,9.50
2019-03-18T15:09:15.868Z,9.50
2019-03-18T15:11:46.349Z,9.60
2019-03-18T15:14:17.074Z,9.70
2019-03-18T15:16:48.883Z,10.00
2019-03-18T15:19:19.230Z,10.10
2019-03-18T15:21:58.387Z,10.10
2019-03-18T15:24:22.057Z,10.20
2019-03-18T15:26:53.639Z,10.20
2019-03-18T15:29:23.994Z,10.10
2019-03-18T15:31:54.680Z,10.10
2019-03-18T15:34:25.039Z,9.70
2019-03-18T15:36:55.741Z,9.40
2019-03-18T15:39:26.155Z,8.90
2019-03-18T15:41:56.906Z,8.50
2019-03-18T15:44:27.245Z,8.30
2019-03-18T15:46:57.980Z,8.00
2019-03-18T15:49:28.331Z,7.70
2019-03-18T15:52:10.415Z,7.50
2019-03-18T15:54:31.173Z,7.40
2019-03-18T15:57:01.498Z,7.40
2019-03-18T15:59:32.134Z,7.50
2019-03-18T16:02:03.220Z,7.60
2019-03-18T16:04:33.892Z,7.50
2019-03-18T16:07:04.787Z,7.60
2019-03-18T16:09:35.468Z,7.60
2019-03-18T16:12:05.814Z,7.50
2019-03-18T16:14:36.164Z,7.50
2019-03-18T16:17:06.524Z,7.40
2019-03-18T16:19:36.854Z,7.20
2019-03-18T16:22:07.477Z,7.20
2019-03-18T16:24:37.898Z,7.10
2019-03-18T16:27:08.561Z,7.10
2019-03-18T16:29:39.173Z,7.10
2019-03-18T16:32:11.680Z,7.10
2019-03-18T16:34:41.858Z,7.00
2019-03-18T16:37:12.194Z,7.00
2019-03-18T16:39:43.675Z,6.90
2019-03-18T16:42:14.369Z,6.90
2019-03-18T16:44:44.739Z,6.90
2019-03-18T16:47:15.505Z,6.90
2019-03-18T16:49:45.853Z,6.90
2019-03-18T16:52:16.221Z,6.90
2019-03-18T16:54:46.893Z,6.90
2019-03-18T16:57:37.052Z,7.00
2019-03-18T17:00:20.495Z,7.00
2019-03-18T17:02:51.084Z,7.00
2019-03-18T17:05:23.683Z,6.90
2019-03-18T17:07:54.656Z,6.80
2019-03-18T17:10:25.416Z,6.70
2019-03-18T17:12:56.142Z,6.70
2019-03-18T17:15:26.931Z,6.70
2019-03-18T17:17:57.558Z,6.70
2019-03-18T17:20:28.150Z,6.70
2019-03-18T17:23:04.501Z,6.60
2019-03-18T17:25:35.542Z,6.70
2019-03-18T17:28:06.255Z,6.70
2019-03-18T17:30:36.892Z,6.80
2019-03-18T17:33:07.512Z,6.80
2019-03-18T17:35:38.259Z,6.80
2019-03-18T17:38:09.097Z,6.80
2019-03-18T17:40:39.448Z,6.80
2019-03-18T17:43:10.339Z,6.80
2019-03-18T17:45:40.743Z,6.60
2019-03-18T17:48:11.423Z,6.30
2019-03-18T17:50:42.365Z,6.00
2019-03-18T17:53:12.744Z,5.90
2019-03-18T17:55:43.073Z,5.70
2019-03-18T17:58:14.061Z,5.60
2019-03-18T18:00:54.095Z,5.60
2019-03-18T18:03:24.786Z,5.60
2019-03-18T18:05:55.156Z,5.70
2019-03-18T18:08:26.226Z,5.60
2019-03-18T18:10:56.573Z,5.60
2019-03-18T18:13:26.938Z,5.60
2019-03-18T18:15:57.645Z,5.50
2019-03-18T18:18:28.322Z,5.50
2019-03-18T18:20:58.973Z,5.50
2019-03-18T18:23:29.611Z,5.50
2019-03-18T18:26:02.220Z,5.60
2019-03-18T18:28:32.569Z,5.60
2019-03-18T18:31:03.302Z,5.70
2019-03-18T18:33:34.015Z,5.80
2019-03-18T18:36:04.717Z,5.80
2019-03-18T18:38:35.095Z,5.90
2019-03-18T18:41:06.086Z,6.00
2019-03-18T18:43:37.453Z,6.00
2019-03-18T18:46:07.930Z,6.00
2019-03-18T18:48:38.786Z,6.00
2019-03-18T18:51:09.131Z,6.10
2019-03-18T18:53:39.537Z,6.10
2019-03-18T18:56:29.268Z,6.10
2019-03-18T18:58:59.635Z,6.10
2019-03-18T19:01:29.973Z,6.00
2019-03-18T19:04:01.139Z,6.00
2019-03-18T19:06:31.554Z,5.90
2019-03-18T19:09:01.913Z,6.00
2019-03-18T19:11:32.846Z,5.90
2019-03-18T19:14:04.816Z,5.90
2019-03-18T19:16:35.168Z,5.80
2019-03-18T19:19:05.780Z,5.80
2019-03-18T19:21:36.177Z,5.80
2019-03-18T19:24:06.873Z,5.80
2019-03-18T19:26:38.189Z,5.70
2019-03-18T19:29:08.554Z,5.70
2019-03-18T19:31:39.264Z,5.70
2019-03-18T19:34:09.870Z,5.70
2019-03-18T19:36:40.283Z,5.70
2019-03-18T19:39:15.745Z,5.70
2019-03-18T19:41:46.343Z,5.60
2019-03-18T19:44:17.006Z,5.60
2019-03-18T19:46:47.355Z,5.60
2019-03-18T19:49:17.710Z,5.60
2019-03-18T19:51:48.816Z,5.50
2019-03-18T19:54:19.152Z,5.50
2019-03-18T19:56:49.744Z,5.40
2019-03-18T19:59:22.588Z,5.40
2019-03-18T20:01:52.531Z,5.40
2019-03-18T20:04:23.242Z,5.40
2019-03-18T20:06:54.990Z,5.40
2019-03-18T20:09:25.616Z,5.30
2019-03-18T20:11:56.456Z,5.30
2019-03-18T20:14:26.809Z,5.30
2019-03-18T20:16:57.494Z,5.30
2019-03-18T20:19:27.851Z,5.40
2019-03-18T20:21:58.753Z,5.30
2019-03-18T20:24:29.108Z,5.20
2019-03-18T20:27:00.039Z,5.30
2019-03-18T20:29:30.784Z,5.20
2019-03-18T20:32:01.406Z,5.20
2019-03-18T20:34:31.754Z,5.20
2019-03-18T20:37:02.448Z,5.10
2019-03-18T20:39:33.152Z,5.10
2019-03-18T20:42:03.508Z,5.10
2019-03-18T20:44:34.328Z,5.00
2019-03-18T20:47:05.039Z,5.00
2019-03-18T20:49:35.382Z,4.90
2019-03-18T20:52:16.252Z,4.90
2019-03-18T20:54:37.863Z,4.80
2019-03-18T20:57:08.495Z,4.80
2019-03-18T20:59:38.850Z,4.80
2019-03-18T21:02:09.674Z,4.70
2019-03-18T21:04:40.008Z,4.80
2019-03-18T21:07:10.415Z,4.80
2019-03-18T21:09:41.179Z,4.80
2019-03-18T21:12:11.528Z,4.80
2019-03-18T21:14:42.078Z,4.80
2019-03-18T21:17:13.155Z,4.80
2019-03-18T21:19:43.525Z,4.90
2019-03-18T21:22:13.985Z,4.90
2019-03-18T21:24:44.580Z,4.90
2019-03-18T21:27:14.906Z,4.90
2019-03-18T21:29:45.300Z,4.90
2019-03-18T21:32:15.622Z,4.90
2019-03-18T21:35:07.341Z,4.80
2019-03-18T21:37:38.054Z,4.80
2019-03-18T21:40:19.477Z,4.80
2019-03-18T21:42:50.236Z,4.70
2019-03-18T21:45:23.452Z,4.70
2019-03-18T21:47:54.156Z,4.70
2019-03-18T21:50:24.541Z,4.60
2019-03-18T21:52:55.219Z,4.60
2019-03-18T21:55:26.028Z,4.60
2019-03-18T21:57:56.688Z,4.60
2019-03-18T22:00:27.819Z,4.50
2019-03-18T22:02:58.189Z,4.50
2019-03-18T22:05:28.529Z,4.60
2019-03-18T22:07:58.889Z,4.60
2019-03-18T22:10:29.387Z,4.60
2019-03-18T22:12:59.708Z,4.60
2019-03-18T22:15:30.487Z,4.70
2019-03-18T22:18:01.245Z,4.70
2019-03-18T22:20:31.862Z,4.70
2019-03-18T22:23:02.301Z,4.70
2019-03-18T22:25:34.645Z,4.70
2019-03-18T22:28:05.125Z,4.80
2019-03-18T22:30:35.736Z,4.80
2019-03-18T22:33:06.093Z,4.80
2019-03-18T22:35:36.425Z,4.80
2019-03-18T22:38:07.139Z,4.90
2019-03-18T22:40:37.533Z,4.90
2019-03-18T22:43:07.898Z,4.90
2019-03-18T22:45:38.250Z,4.90
2019-03-18T22:48:08.606Z,4.90
2019-03-18T22:50:38.964Z,4.80
2019-03-18T22:53:09.613Z,4.80
2019-03-18T22:55:40.266Z,4.80
2019-03-18T22:58:10.586Z,4.80
2019-03-18T23:00:43.033Z,4.80
2019-03-18T23:03:13.383Z,4.90
2019-03-18T23:05:44.217Z,4.80
2019-03-18T23:08:14.800Z,4.80
2019-03-18T23:10:45.560Z,4.90
2019-03-18T23:13:15.889Z,4.90
2019-03-18T23:15:46.240Z,4.90
2019-03-18T23:18:16.588Z,5.00
2019-03-18T23:20:47.269Z,5.00
2019-03-18T23:23:17.624Z,5.00
2019-03-18T23:25:48.033Z,5.00
2019-03-18T23:28:18.378Z,5.00
2019-03-18T23:31:08.146Z,5.00
2019-03-18T23:33:38.483Z,5.00
2019-03-18T23:36:08.836Z,5.10
2019-03-18T23:38:39.836Z,5.10
2019-03-18T23:41:10.179Z,5.00
2019-03-18T23:43:40.903Z,5.00
2019-03-18T23:46:11.312Z,5.00
2019-03-18T23:48:41.665Z,5.10
2019-03-18T23:51:12.384Z,5.10
2019-03-18T23:53:44.318Z,5.00
2019-03-18T23:56:14.678Z,5.00
2019-03-18T23:58:45.000Z,5.00
